createdAt,value
2018-07-26T00:01:32.429Z,11.80
2018-07-26T00:04:00.847Z,12.30
2018-07-26T00:06:29.475Z,13.63
2018-07-26T00:08:57.890Z,12.13
2018-07-26T00:11:26.361Z,12.60
2018-07-26T00:13:54.779Z,12.50
2018-07-26T00:16:23.189Z,13.47
2018-07-26T00:18:51.605Z,13.63
2018-07-26T00:21:19.994Z,12.97
2018-07-26T00:23:48.429Z,14.13
2018-07-26T00:26:16.881Z,14.03
2018-07-26T00:28:45.306Z,13.53
2018-07-26T00:31:16.801Z,13.10
2018-07-26T00:33:45.255Z,13.77
2018-07-26T00:36:13.705Z,14.23
2018-07-26T00:38:50.162Z,14.87
2018-07-26T00:41:19.411Z,15.60
2018-07-26T00:43:50.890Z,15.23
2018-07-26T00:46:22.805Z,14.10
2018-07-26T00:48:53.435Z,14.87
2018-07-26T00:51:21.760Z,15.47
2018-07-26T00:53:50.178Z,14.90
2018-07-26T00:56:19.346Z,15.27
2018-07-26T00:58:47.745Z,13.97
2018-07-26T01:01:16.148Z,14.90
2018-07-26T01:03:44.597Z,14.90
2018-07-26T01:06:13.020Z,15.57
2018-07-26T01:08:41.436Z,14.33
2018-07-26T01:11:09.546Z,15.00
2018-07-26T01:13:37.958Z,14.67
2018-07-26T01:16:06.371Z,13.57
2018-07-26T01:18:34.765Z,14.87
2018-07-26T01:21:03.176Z,17.00
2018-07-26T01:23:32.034Z,16.03
2018-07-26T01:26:00.468Z,14.80
2018-07-26T01:28:28.874Z,14.43
2018-07-26T01:30:57.286Z,14.87
2018-07-26T01:33:25.690Z,15.07
2018-07-26T01:35:54.090Z,15.37
2018-07-26T01:38:22.520Z,14.13
2018-07-26T01:40:50.928Z,15.33
2018-07-26T01:43:58.514Z,14.47
2018-07-26T01:46:27.564Z,16.00
2018-07-26T01:48:55.996Z,15.73
2018-07-26T01:51:24.391Z,14.63
2018-07-26T01:53:52.819Z,14.57
2018-07-26T01:56:21.219Z,14.67
2018-07-26T01:58:49.627Z,15.50
2018-07-26T02:01:18.617Z,14.63
2018-07-26T02:03:47.027Z,16.77
2018-07-26T02:06:15.444Z,16.23
2018-07-26T02:08:43.865Z,17.93
2018-07-26T02:11:12.270Z,17.60
2018-07-26T02:13:40.670Z,18.17
2018-07-26T02:16:09.097Z,17.43
2018-07-26T02:18:37.494Z,17.80
2018-07-26T02:21:05.932Z,18.20
2018-07-26T02:23:34.354Z,17.30
2018-07-26T02:26:02.788Z,16.60
2018-07-26T02:28:31.205Z,15.47
2018-07-26T02:30:59.677Z,15.23
2018-07-26T02:33:28.058Z,15.87
2018-07-26T02:35:56.508Z,16.03
2018-07-26T02:38:24.914Z,17.37
2018-07-26T02:40:53.334Z,17.27
2018-07-26T02:43:21.754Z,18.40
2018-07-26T02:45:50.166Z,17.27
2018-07-26T02:48:18.592Z,17.77
2018-07-26T02:50:47.026Z,19.50
2018-07-26T02:53:15.461Z,17.53
2018-07-26T02:55:43.858Z,16.90
2018-07-26T02:58:17.893Z,17.73
2018-07-26T03:00:46.298Z,20.13
2018-07-26T03:03:14.705Z,19.23
2018-07-26T03:05:43.120Z,18.83
2018-07-26T03:08:11.526Z,19.43
2018-07-26T03:10:39.951Z,21.90
2018-07-26T03:13:08.365Z,20.63
2018-07-26T03:15:36.758Z,20.37
2018-07-26T03:18:05.206Z,22.33
2018-07-26T03:20:33.617Z,21.47
2018-07-26T03:23:02.023Z,22.67
2018-07-26T03:25:30.421Z,23.80
2018-07-26T03:27:59.473Z,21.93
2018-07-26T03:30:27.911Z,20.60
2018-07-26T03:32:56.317Z,20.17
2018-07-26T03:35:24.711Z,21.30
2018-07-26T03:37:53.115Z,20.43
2018-07-26T03:40:21.528Z,19.30
2018-07-26T03:42:50.039Z,20.63
2018-07-26T03:45:18.478Z,19.97
2018-07-26T03:47:46.885Z,20.03
2018-07-26T03:50:15.313Z,19.30
2018-07-26T03:52:43.782Z,19.87
2018-07-26T03:55:12.179Z,23.57
2018-07-26T03:57:40.589Z,25.50
2018-07-26T04:00:08.981Z,25.23
2018-07-26T04:02:37.381Z,21.80
2018-07-26T04:05:05.779Z,21.23
2018-07-26T04:07:34.182Z,21.20
2018-07-26T04:10:02.601Z,21.13
2018-07-26T04:12:31.005Z,21.23
2018-07-26T04:14:59.428Z,20.37
2018-07-26T04:17:27.859Z,20.77
2018-07-26T04:19:56.292Z,17.57
2018-07-26T04:22:24.668Z,18.40
2018-07-26T04:24:53.074Z,17.07
2018-07-26T04:27:22.311Z,17.37
2018-07-26T04:29:50.710Z,20.77
2018-07-26T04:32:19.098Z,17.13
2018-07-26T04:34:47.515Z,19.33
2018-07-26T04:37:15.919Z,19.27
2018-07-26T04:39:44.324Z,20.10
2018-07-26T04:42:12.735Z,20.60
2018-07-26T04:44:59.254Z,19.63
2018-07-26T04:47:27.750Z,21.80
2018-07-26T04:49:56.162Z,22.73
2018-07-26T04:52:24.573Z,22.03
2018-07-26T04:54:52.963Z,23.10
2018-07-26T04:57:21.361Z,23.57
2018-07-26T04:59:49.771Z,22.67
2018-07-26T05:02:18.208Z,23.40
2018-07-26T05:04:46.895Z,22.30
2018-07-26T05:07:15.315Z,23.03
2018-07-26T05:09:43.730Z,23.87
2018-07-26T05:12:12.140Z,24.47
2018-07-26T05:14:40.535Z,24.30
2018-07-26T05:17:08.951Z,23.97
2018-07-26T05:19:37.369Z,23.60
2018-07-26T05:22:05.755Z,25.00
2018-07-26T05:24:34.154Z,22.63
2018-07-26T05:27:02.573Z,23.47
2018-07-26T05:29:30.990Z,23.47
2018-07-26T05:32:00.050Z,21.63
2018-07-26T05:34:29.530Z,23.43
2018-07-26T05:36:58.032Z,21.90
2018-07-26T05:39:26.426Z,23.13
2018-07-26T05:41:54.848Z,21.70
2018-07-26T05:44:23.246Z,21.53
2018-07-26T05:46:51.654Z,22.83
2018-07-26T05:49:20.086Z,20.03
2018-07-26T05:51:48.506Z,19.57
2018-07-26T05:54:16.914Z,19.30
2018-07-26T05:56:45.368Z,21.57
2018-07-26T05:59:13.814Z,20.60
2018-07-26T06:01:42.808Z,21.77
2018-07-26T06:04:11.213Z,21.23
2018-07-26T06:06:43.622Z,20.50
2018-07-26T06:09:12.872Z,20.93
2018-07-26T06:11:42.164Z,19.87
2018-07-26T06:14:10.588Z,18.60
2018-07-26T06:16:38.992Z,19.03
2018-07-26T06:19:07.392Z,20.90
2018-07-26T06:21:35.786Z,20.33
2018-07-26T06:24:05.019Z,19.63
2018-07-26T06:26:33.416Z,18.20
2018-07-26T06:29:01.849Z,20.40
2018-07-26T06:31:30.438Z,19.97
2018-07-26T06:33:58.841Z,20.47
2018-07-26T06:36:27.239Z,18.50
2018-07-26T06:38:55.654Z,20.47
2018-07-26T06:41:24.052Z,21.90
2018-07-26T06:43:52.577Z,18.47
2018-07-26T06:46:21.162Z,20.33
2018-07-26T06:48:49.633Z,23.33
2018-07-26T06:51:18.101Z,19.97
2018-07-26T06:53:46.581Z,18.70
2018-07-26T06:56:15.197Z,20.73
2018-07-26T06:58:45.145Z,19.13
2018-07-26T07:01:15.792Z,17.97
2018-07-26T07:03:44.237Z,19.67
2018-07-26T07:06:12.633Z,19.97
2018-07-26T07:08:41.051Z,17.37
2018-07-26T07:11:09.475Z,19.10
2018-07-26T07:13:37.904Z,18.90
2018-07-26T07:16:06.333Z,16.63
2018-07-26T07:18:35.920Z,17.50
2018-07-26T07:21:04.368Z,18.90
2018-07-26T07:23:32.761Z,18.50
2018-07-26T07:26:01.232Z,18.60
2018-07-26T07:28:29.648Z,17.63
2018-07-26T07:30:58.048Z,16.33
2018-07-26T07:33:26.428Z,16.10
2018-07-26T07:35:54.845Z,18.33
2018-07-26T07:38:23.236Z,19.30
2018-07-26T07:40:51.638Z,18.40
2018-07-26T07:43:20.035Z,18.47
2018-07-26T07:45:48.432Z,19.27
2018-07-26T07:48:16.843Z,17.73
2018-07-26T07:50:45.232Z,18.10
2018-07-26T07:53:13.624Z,19.43
2018-07-26T07:55:42.017Z,19.93
2018-07-26T07:58:10.443Z,20.53
2018-07-26T08:00:38.928Z,19.00
2018-07-26T08:03:07.352Z,17.40
2018-07-26T08:05:35.753Z,16.87
2018-07-26T08:08:04.167Z,15.47
2018-07-26T08:10:32.584Z,16.57
2018-07-26T08:13:00.987Z,15.20
2018-07-26T08:15:29.384Z,17.07
2018-07-26T08:17:57.791Z,15.43
2018-07-26T08:20:26.192Z,17.07
2018-07-26T08:22:54.594Z,18.87
2018-07-26T08:25:23.000Z,18.17
2018-07-26T08:27:51.432Z,17.77
2018-07-26T08:30:19.845Z,17.30
2018-07-26T08:32:48.276Z,16.13
2018-07-26T08:35:16.703Z,17.23
2018-07-26T08:37:45.129Z,16.83
2018-07-26T08:40:13.553Z,15.53
2018-07-26T08:42:41.959Z,17.23
2018-07-26T08:45:10.418Z,18.23
2018-07-26T08:47:38.823Z,18.90
2018-07-26T08:50:07.353Z,17.60
2018-07-26T08:52:35.755Z,16.30
2018-07-26T08:55:04.166Z,16.73
2018-07-26T08:57:32.665Z,14.47
2018-07-26T09:00:01.126Z,15.07
2018-07-26T09:02:30.544Z,15.30
2018-07-26T09:04:59.241Z,14.47
2018-07-26T09:07:27.679Z,16.13
2018-07-26T09:09:56.479Z,14.07
2018-07-26T09:12:24.900Z,15.43
2018-07-26T09:14:53.301Z,16.70
2018-07-26T09:17:21.765Z,17.50
2018-07-26T09:19:50.194Z,15.03
2018-07-26T09:22:18.532Z,13.47
2018-07-26T09:24:46.979Z,15.67
2018-07-26T09:27:15.511Z,14.10
2018-07-26T09:29:43.934Z,14.00
2018-07-26T09:32:12.351Z,13.60
2018-07-26T09:34:40.814Z,16.50
2018-07-26T09:37:09.224Z,12.90
2018-07-26T09:39:37.626Z,14.07
2018-07-26T09:42:06.119Z,15.10
2018-07-26T09:44:34.553Z,14.87
2018-07-26T09:47:02.955Z,13.23
2018-07-26T09:49:31.340Z,12.80
2018-07-26T09:51:59.734Z,12.47
2018-07-26T09:54:28.139Z,13.33
2018-07-26T09:56:56.521Z,14.33
2018-07-26T09:59:24.921Z,13.70
2018-07-26T10:01:53.339Z,12.43
2018-07-26T10:04:21.759Z,13.33
2018-07-26T10:06:50.198Z,10.97
2018-07-26T10:09:18.608Z,12.53
2018-07-26T10:11:47.097Z,11.00
2018-07-26T10:14:15.522Z,9.93
2018-07-26T10:16:43.608Z,9.43
2018-07-26T10:19:12.097Z,9.63
2018-07-26T10:21:40.621Z,8.93
2018-07-26T10:24:09.029Z,7.90
2018-07-26T10:26:37.589Z,10.53
2018-07-26T10:29:06.208Z,9.90
2018-07-26T10:31:34.598Z,9.67
2018-07-26T10:34:03.015Z,9.47
2018-07-26T10:36:31.429Z,7.63
2018-07-26T10:38:59.833Z,8.53
2018-07-26T10:41:28.252Z,7.03
2018-07-26T10:43:56.645Z,8.00
2018-07-26T10:46:25.565Z,7.63
2018-07-26T10:48:53.973Z,7.67
2018-07-26T10:51:22.537Z,7.20
2018-07-26T10:53:50.949Z,7.77
2018-07-26T10:56:19.499Z,8.13
2018-07-26T10:58:48.346Z,7.27
2018-07-26T11:01:16.762Z,7.13
2018-07-26T11:03:45.251Z,8.97
2018-07-26T11:06:13.932Z,8.17
2018-07-26T11:08:42.341Z,7.93
2018-07-26T11:11:10.806Z,7.20
2018-07-26T11:13:39.221Z,7.00
2018-07-26T11:16:07.607Z,6.77
2018-07-26T11:18:36.361Z,6.40
2018-07-26T11:21:04.843Z,7.17
2018-07-26T11:23:33.352Z,6.47
2018-07-26T11:26:01.749Z,7.20
2018-07-26T11:28:30.146Z,7.40
2018-07-26T11:30:58.562Z,7.30
2018-07-26T11:33:26.959Z,7.50
2018-07-26T11:35:55.585Z,6.83
2018-07-26T11:38:24.205Z,5.90
2018-07-26T11:40:52.601Z,6.47
2018-07-26T11:43:21.000Z,5.97
2018-07-26T11:45:49.575Z,6.40
2018-07-26T11:48:18.001Z,6.33
2018-07-26T11:50:46.987Z,6.20
2018-07-26T11:53:15.394Z,6.70
2018-07-26T11:55:44.106Z,6.20
2018-07-26T11:58:12.517Z,6.70
2018-07-26T12:00:41.061Z,6.40
2018-07-26T12:03:09.462Z,6.73
2018-07-26T12:05:37.874Z,6.23
2018-07-26T12:08:06.288Z,7.10
2018-07-26T12:10:34.697Z,6.40
2018-07-26T12:13:03.139Z,6.23
2018-07-26T12:15:31.547Z,6.47
2018-07-26T12:17:59.997Z,6.90
2018-07-26T12:20:28.751Z,6.90
2018-07-26T12:22:57.204Z,6.97
2018-07-26T12:25:25.570Z,6.30
2018-07-26T12:27:54.345Z,6.17
2018-07-26T12:30:22.757Z,6.50
2018-07-26T12:32:51.169Z,5.93
2018-07-26T12:35:19.588Z,6.50
2018-07-26T12:37:47.979Z,6.40
2018-07-26T12:40:16.396Z,6.60
2018-07-26T12:42:44.781Z,5.90
2018-07-26T12:45:13.611Z,6.10
2018-07-26T12:47:42.150Z,6.57
2018-07-26T12:50:10.555Z,5.87
2018-07-26T12:52:38.959Z,6.60
2018-07-26T12:55:07.362Z,6.37
2018-07-26T12:57:42.162Z,6.43
2018-07-26T13:00:10.583Z,7.13
2018-07-26T13:02:39.002Z,7.00
2018-07-26T13:05:07.401Z,6.77
2018-07-26T13:07:35.788Z,7.37
2018-07-26T13:10:05.014Z,7.00
2018-07-26T13:12:33.456Z,6.17
2018-07-26T13:15:01.858Z,6.20
2018-07-26T13:17:30.261Z,6.00
2018-07-26T13:19:58.669Z,5.53
2018-07-26T13:22:27.088Z,6.10
2018-07-26T13:24:55.948Z,5.93
2018-07-26T13:27:24.714Z,5.47
2018-07-26T13:29:53.106Z,6.40
2018-07-26T13:32:21.826Z,5.83
2018-07-26T13:34:50.250Z,6.00
2018-07-26T13:37:19.066Z,6.40
2018-07-26T13:39:47.506Z,6.43
2018-07-26T13:42:16.017Z,6.40
2018-07-26T13:44:44.884Z,6.27
2018-07-26T13:47:13.326Z,6.33
2018-07-26T13:49:41.992Z,6.43
2018-07-26T13:52:10.383Z,6.40
2018-07-26T13:54:38.772Z,6.00
2018-07-26T13:57:07.178Z,6.70
2018-07-26T13:59:35.582Z,6.40
2018-07-26T14:02:03.999Z,7.60
2018-07-26T14:04:32.434Z,6.50
2018-07-26T14:07:00.815Z,6.77
2018-07-26T14:09:29.227Z,5.83
2018-07-26T14:11:57.651Z,6.73
2018-07-26T14:14:26.067Z,6.60
2018-07-26T14:16:54.479Z,6.37
2018-07-26T14:19:22.894Z,5.80
2018-07-26T14:21:51.329Z,6.20
2018-07-26T14:24:24.101Z,6.37
2018-07-26T14:26:53.607Z,7.93
2018-07-26T14:29:23.252Z,6.67
2018-07-26T14:31:51.729Z,7.33
2018-07-26T14:34:20.543Z,6.93
2018-07-26T14:36:48.941Z,6.23
2018-07-26T14:39:17.340Z,6.63
2018-07-26T14:41:45.735Z,6.60
2018-07-26T14:44:14.561Z,6.70
2018-07-26T14:46:42.962Z,6.00
2018-07-26T14:49:11.354Z,6.50
2018-07-26T14:51:40.055Z,6.37
2018-07-26T14:54:08.550Z,7.33
2018-07-26T14:56:36.992Z,6.17
2018-07-26T14:59:05.384Z,6.83
2018-07-26T15:01:33.856Z,7.70
2018-07-26T15:04:02.354Z,6.70
2018-07-26T15:06:30.734Z,6.47
2018-07-26T15:08:59.276Z,7.17
2018-07-26T15:11:27.923Z,7.00
2018-07-26T15:13:56.305Z,6.40
2018-07-26T15:16:25.062Z,6.73
2018-07-26T15:18:54.352Z,6.00
2018-07-26T15:21:22.767Z,6.93
2018-07-26T15:23:51.180Z,6.20
2018-07-26T15:26:20.132Z,6.23
2018-07-26T15:28:48.442Z,6.23
2018-07-26T15:31:17.060Z,6.70
2018-07-26T15:33:45.390Z,6.80
2018-07-26T15:36:13.816Z,7.23
2018-07-26T15:38:42.288Z,6.53
2018-07-26T15:41:10.700Z,6.67
2018-07-26T15:43:39.123Z,6.70
2018-07-26T15:46:07.511Z,6.40
2018-07-26T15:48:35.973Z,7.30
2018-07-26T15:51:04.523Z,6.93
2018-07-26T15:53:32.865Z,6.13
2018-07-26T16:02:45.485Z,6.57
2018-07-26T16:05:13.941Z,6.13
2018-07-26T16:07:42.351Z,5.90
2018-07-26T16:10:11.067Z,6.43
2018-07-26T16:12:39.473Z,5.97
2018-07-26T16:15:10.244Z,5.92
2018-07-26T16:17:38.713Z,6.30
2018-07-26T16:20:09.860Z,6.30
2018-07-26T16:22:38.283Z,6.17
2018-07-26T16:25:08.794Z,6.05
2018-07-26T16:27:37.232Z,6.15
2018-07-26T16:30:08.930Z,5.97
2018-07-26T16:32:37.335Z,6.10
2018-07-26T16:35:05.918Z,6.85
2018-07-26T16:37:34.403Z,6.15
2018-07-26T16:40:02.872Z,5.92
2018-07-26T16:42:31.274Z,6.28
2018-07-26T16:44:59.670Z,6.47
2018-07-26T16:47:28.078Z,6.20
2018-07-26T16:49:56.476Z,6.58
2018-07-26T16:52:24.888Z,5.97
2018-07-26T16:54:53.522Z,5.90
2018-07-26T16:57:21.922Z,5.30
2018-07-26T16:59:50.328Z,6.15
2018-07-26T17:02:18.756Z,5.97
2018-07-26T17:04:47.174Z,5.62
2018-07-26T17:07:15.598Z,6.00
2018-07-26T17:09:44.916Z,6.43
2018-07-26T17:12:13.988Z,6.17
2018-07-26T17:14:42.802Z,6.53
2018-07-26T17:17:11.799Z,6.57
2018-07-26T17:19:40.369Z,6.20
2018-07-26T17:22:08.801Z,5.83
2018-07-26T17:24:37.231Z,6.70
2018-07-26T17:27:05.695Z,7.10
2018-07-26T17:29:34.093Z,7.90
2018-07-26T17:32:02.535Z,8.90
2018-07-26T17:34:31.055Z,8.43
2018-07-26T17:36:59.623Z,8.40
2018-07-26T17:39:28.029Z,8.37
2018-07-26T17:41:56.437Z,8.20
2018-07-26T17:44:24.855Z,8.20
2018-07-26T17:46:53.305Z,8.00
2018-07-26T17:49:21.721Z,7.90
2018-07-26T17:51:50.125Z,8.10
2018-07-26T17:54:19.051Z,8.00
2018-07-26T17:56:47.286Z,8.47
2018-07-26T17:59:15.675Z,8.63
2018-07-26T18:01:44.111Z,9.30
2018-07-26T18:04:12.575Z,9.93
2018-07-26T18:06:41.041Z,9.07
2018-07-26T18:09:09.951Z,9.00
2018-07-26T18:11:38.937Z,8.77
2018-07-26T18:14:07.047Z,8.80
2018-07-26T18:16:35.521Z,7.67
2018-07-26T18:19:03.987Z,8.27
2018-07-26T18:21:32.390Z,7.50
2018-07-26T18:24:00.797Z,6.77
2018-07-26T18:26:29.243Z,6.30
2018-07-26T18:28:57.635Z,6.53
2018-07-26T18:31:26.351Z,6.77
2018-07-26T18:33:54.726Z,6.30
2018-07-26T18:36:23.114Z,6.47
2018-07-26T18:38:51.500Z,6.27
2018-07-26T18:41:19.910Z,6.70
2018-07-26T18:43:48.363Z,6.23
2018-07-26T18:46:16.762Z,5.60
2018-07-26T18:48:45.536Z,6.33
2018-07-26T18:51:13.932Z,5.90
2018-07-26T18:53:42.328Z,6.23
2018-07-26T18:56:10.788Z,5.80
2018-07-26T18:58:39.174Z,5.80
2018-07-26T19:01:07.591Z,6.00
2018-07-26T19:05:05.430Z,6.30
2018-07-26T19:07:34.180Z,6.00
2018-07-26T19:10:02.591Z,5.90
2018-07-26T19:12:30.982Z,6.17
2018-07-26T19:14:59.386Z,6.07
2018-07-26T19:17:27.863Z,7.10
2018-07-26T19:19:56.227Z,6.50
2018-07-26T19:22:24.652Z,6.60
2018-07-26T19:24:53.117Z,6.30
2018-07-26T19:27:21.533Z,6.37
2018-07-26T19:29:49.927Z,6.53
2018-07-26T19:32:18.013Z,6.63
2018-07-26T19:34:46.413Z,5.90
2018-07-26T19:37:14.804Z,6.43
2018-07-26T19:39:43.223Z,6.90
2018-07-26T19:42:11.642Z,6.80
2018-07-26T19:44:40.235Z,5.97
2018-07-26T19:47:08.725Z,6.33
2018-07-26T19:49:37.141Z,6.27
2018-07-26T19:52:05.649Z,6.37
2018-07-26T19:54:34.035Z,6.50
2018-07-26T19:57:02.464Z,6.20
2018-07-26T19:59:30.933Z,6.83
2018-07-26T20:01:59.357Z,7.10
2018-07-26T20:04:27.765Z,7.80
2018-07-26T20:06:56.188Z,7.43
2018-07-26T20:09:24.592Z,7.47
2018-07-26T20:11:53.390Z,7.00
2018-07-26T20:14:21.789Z,6.80
2018-07-26T20:16:50.396Z,6.87
2018-07-26T20:19:18.777Z,6.53
2018-07-26T20:21:47.274Z,6.80
2018-07-26T20:24:15.702Z,6.50
2018-07-26T20:26:44.239Z,6.73
2018-07-26T20:29:12.737Z,6.77
2018-07-26T20:31:41.750Z,6.90
2018-07-26T20:34:10.210Z,6.67
2018-07-26T20:36:39.652Z,7.33
2018-07-26T20:39:11.294Z,7.33
2018-07-26T20:41:39.821Z,8.30
2018-07-26T20:44:09.286Z,8.47
2018-07-26T20:46:38.169Z,8.23
2018-07-26T20:49:06.576Z,7.90
2018-07-26T20:51:34.988Z,7.90
2018-07-26T20:54:03.807Z,7.53
2018-07-26T20:56:32.201Z,6.60
2018-07-26T20:59:00.696Z,6.83
2018-07-26T21:01:29.335Z,7.20
2018-07-26T21:03:58.777Z,7.70
2018-07-26T21:06:27.191Z,6.90
2018-07-26T21:08:56.119Z,7.53
2018-07-26T21:11:24.655Z,8.00
2018-07-26T21:13:53.195Z,8.70
2018-07-26T21:16:21.593Z,8.90
2018-07-26T21:18:50.009Z,7.70
2018-07-26T21:21:18.623Z,7.23
2018-07-26T21:23:47.039Z,7.33
2018-07-26T21:26:16.013Z,7.73
2018-07-26T21:28:44.407Z,7.13
2018-07-26T21:31:13.069Z,8.50
2018-07-26T21:33:41.475Z,8.23
2018-07-26T21:36:09.881Z,8.30
2018-07-26T21:38:38.593Z,8.87
2018-07-26T21:41:06.984Z,8.90
2018-07-26T21:43:35.386Z,7.93
2018-07-26T21:46:03.786Z,8.80
2018-07-26T21:48:32.214Z,8.67
2018-07-26T21:51:00.646Z,8.50
2018-07-26T21:53:29.052Z,9.60
2018-07-26T21:55:57.462Z,9.13
2018-07-26T21:58:25.858Z,9.47
2018-07-26T22:00:58.473Z,9.77
2018-07-26T22:03:28.999Z,9.37
2018-07-26T22:05:57.392Z,9.00
2018-07-26T22:08:25.787Z,9.70
2018-07-26T22:10:54.197Z,9.07
2018-07-26T22:13:22.583Z,9.10
2018-07-26T22:15:52.142Z,9.50
2018-07-26T22:18:21.881Z,9.80
2018-07-26T22:20:50.308Z,9.40
2018-07-26T22:23:18.836Z,8.90
2018-07-26T22:25:48.321Z,8.60
2018-07-26T22:28:17.923Z,9.50
2018-07-26T22:30:47.426Z,10.13
2018-07-26T22:33:15.857Z,10.83
2018-07-26T22:35:45.301Z,10.70
2018-07-26T22:38:14.338Z,10.83
2018-07-26T22:40:42.731Z,9.73
2018-07-26T22:43:11.117Z,9.83
2018-07-26T22:45:40.242Z,10.00
2018-07-26T22:48:08.663Z,10.43
2018-07-26T22:50:37.070Z,10.13
2018-07-26T22:53:05.541Z,10.70
2018-07-26T22:55:33.933Z,9.80
2018-07-26T22:58:02.321Z,10.23
2018-07-26T23:00:30.825Z,11.47
2018-07-26T23:02:59.215Z,11.50
2018-07-26T23:05:27.607Z,11.03
2018-07-26T23:07:55.994Z,11.00
2018-07-26T23:10:24.777Z,10.83
2018-07-26T23:12:53.233Z,11.53
2018-07-26T23:15:21.705Z,11.93
2018-07-26T23:17:50.080Z,11.47
2018-07-26T23:20:18.481Z,12.57
2018-07-26T23:22:51.717Z,14.10
2018-07-26T23:25:20.703Z,13.90
2018-07-26T23:27:49.122Z,14.40
2018-07-26T23:30:17.540Z,15.13
2018-07-26T23:32:46.160Z,13.30
2018-07-26T23:35:14.573Z,16.03
2018-07-26T23:37:43.005Z,15.47
2018-07-26T23:40:12.169Z,15.23
2018-07-26T23:42:41.445Z,16.60
2018-07-26T23:45:10.218Z,14.90
2018-07-26T23:47:38.605Z,13.90
2018-07-26T23:50:07.714Z,13.27
2018-07-26T23:52:36.122Z,14.80
2018-07-26T23:55:05.006Z,14.70
2018-07-26T23:57:33.434Z,13.70
